Terminal Aerodrome Forecast
Issued by NWS Cleveland, OH

Home | Current Version | Previous Version | Text Only | Print | Product List | Glossary On
Versions: 1 2 3 4 5 6 7 8 9 10 11 12 13 14 15
000
FTUS41 KCLE 251100
TAFTOL
TAF
KTOL 251120Z 2512/2612 08008KT P6SM OVC050
     FM251500 08012KT P6SM VCSH OVC040
     FM260000 05012KT P6SM SCT040 BKN120
     FM260400 04008KT P6SM SCT120 BKN250
     FM260800 02008KT P6SM SCT250=

USA.gov is the U.S. government's official web portal to all federal, state and local government web resources and services.